Time;durP1;ratioP1;P1;durP2;ratioP2;P2;SDS_P1;SDS_P2;PMS_P1;PMS_P2;Temp;Humidity;BMP_temperature;BMP_pressure;BME280_temperature;BME280_humidity;BME280_pressure;Samples;Min_cycle;Max_cycle;Signal;HPM_P1;HPM_P2
2022/10/11 00:01:44;;;;;;;7.90;3.60;;;5.10;99.90;;;;;;5056089;28;20076;-60
2022/10/11 00:04:10;;;;;;;15.93;3.65;;;5.00;99.90;;;;;;5055714;28;20068;-60
2022/10/11 00:06:38;;;;;;;16.77;4.32;;;5.20;99.90;;;;;;5054697;28;20041;-59
2022/10/11 00:09:10;;;;;;;20.33;4.43;;;5.20;99.90;;;;;;5055780;28;20043;-59
2022/10/11 00:11:36;;;;;;;14.05;4.07;;;5.20;99.90;;;;;;5055496;28;20040;-60
2022/10/11 00:14:02;;;;;;;12.35;3.97;;;5.70;99.90;;;;;;5055748;28;20051;-59
2022/10/11 00:16:31;;;;;;;17.08;4.15;;;4.20;99.90;;;;;;5055506;28;20045;-60
2022/10/11 00:19:00;;;;;;;12.50;4.50;;;5.10;99.90;;;;;;5054386;28;20045;-59
2022/10/11 00:21:29;;;;;;;18.08;4.60;;;5.90;99.90;;;;;;5055311;28;20053;-60
2022/10/11 00:23:55;;;;;;;15.18;4.13;;;3.30;99.90;;;;;;5055457;28;20041;-59
2022/10/11 00:26:22;;;;;;;17.20;4.10;;;5.20;99.90;;;;;;5055261;28;20048;-60
2022/10/11 00:28:51;;;;;;;17.17;4.70;;;5.10;99.90;;;;;;5054013;28;20076;-59
2022/10/11 00:31:19;;;;;;;24.67;5.13;;;5.20;99.90;;;;;;5055292;28;20041;-59
2022/10/11 00:33:45;;;;;;;17.02;4.57;;;5.30;99.90;;;;;;5055113;28;20079;-59
2022/10/11 00:36:16;;;;;;;30.40;4.45;;;6.30;99.90;;;;;;5055305;28;20064;-59
2022/10/11 00:38:43;;;;;;;14.10;4.28;;;5.30;99.90;;;;;;5054360;28;20052;-60
2022/10/11 00:41:09;;;;;;;23.15;4.50;;;5.20;99.90;;;;;;5053659;28;20381;-59
2022/10/11 00:43:35;;;;;;;16.83;4.63;;;5.20;99.90;;;;;;5055172;28;20039;-59
2022/10/11 00:46:06;;;;;;;18.33;4.45;;;5.00;99.90;;;;;;5055121;28;20409;-59
2022/10/11 00:48:49;;;;;;;13.70;4.03;;;5.10;99.90;;;;;;5054836;28;20110;-59
2022/10/11 00:51:40;;;;;;;15.48;4.10;;;5.50;99.90;;;;;;5054930;28;20044;-59
2022/10/11 00:54:12;;;;;;;16.83;3.80;;;4.80;99.90;;;;;;5054956;28;20063;-60
2022/10/11 00:56:39;;;;;;;15.55;3.78;;;5.00;99.90;;;;;;5053611;28;20107;-60
2022/10/11 00:59:11;;;;;;;10.02;4.00;;;5.00;99.90;;;;;;5053532;28;20049;-59
2022/10/11 01:01:37;;;;;;;10.95;3.28;;;4.70;99.90;;;;;;5054725;28;20033;-59
2022/10/11 01:04:03;;;;;;;8.27;3.50;;;4.90;99.90;;;;;;5054597;28;20039;-59
2022/10/11 01:06:28;;;;;;;11.13;3.40;;;5.10;99.90;;;;;;5054923;28;20032;-59
2022/10/11 01:08:55;;;;;;;11.45;3.50;;;4.90;99.90;;;;;;5054772;28;20098;-59
2022/10/11 01:11:23;;;;;;;10.82;3.40;;;4.30;99.90;;;;;;5054677;28;20036;-58
2022/10/11 01:14:20;;;;;;;9.35;3.42;;;4.40;99.90;;;;;;5054494;28;20032;-59
2022/10/11 01:16:52;;;;;;;11.27;3.05;;;4.60;99.90;;;;;;5054644;28;20033;-59
2022/10/11 01:19:38;;;;;;;11.57;3.60;;;4.80;99.90;;;;;;5054555;28;20029;-59
2022/10/11 01:22:38;;;;;;;9.90;3.17;;;4.70;99.90;;;;;;5054523;28;20049;-59
2022/10/11 01:25:34;;;;;;;10.32;3.10;;;5.00;99.90;;;;;;5054442;28;20256;-59
2022/10/11 01:28:13;;;;;;;15.43;3.78;;;4.00;99.90;;;;;;5054398;28;20068;-59
2022/10/11 01:30:41;;;;;;;11.38;3.75;;;4.60;99.90;;;;;;5054166;28;20388;-59
2022/10/11 01:33:33;;;;;;;11.80;3.65;;;4.90;99.90;;;;;;5054165;28;20079;-59
2022/10/11 01:36:42;;;;;;;12.20;3.58;;;4.60;99.90;;;;;;5054376;28;20147;-59
2022/10/11 01:39:15;;;;;;;7.53;3.10;;;4.60;99.90;;;;;;5053168;28;20378;-59
2022/10/11 01:41:51;;;;;;;11.80;3.40;;;4.70;99.90;;;;;;5054279;28;20045;-59
2022/10/11 01:44:17;;;;;;;8.30;2.72;;;4.70;99.90;;;;;;5054051;28;20130;-59
2022/10/11 01:46:46;;;;;;;9.57;3.03;;;5.20;99.90;;;;;;5053811;28;20041;-59
2022/10/11 01:49:12;;;;;;;8.45;2.92;;;;;;;;;;5053935;28;20055;-59
2022/10/11 01:51:45;;;;;;;9.02;3.33;;;4.70;99.90;;;;;;5053378;28;20049;-59
2022/10/11 01:54:37;;;;;;;8.52;3.30;;;4.60;99.90;;;;;;5053870;28;20086;-59
2022/10/11 01:57:42;;;;;;;7.00;3.20;;;4.60;99.90;;;;;;5053769;28;20044;-59
2022/10/11 02:00:16;;;;;;;8.52;3.22;;;4.60;99.90;;;;;;5052797;28;20147;-59
2022/10/11 02:02:58;;;;;;;12.93;3.28;;;4.50;99.90;;;;;;5053718;28;20040;-59
2022/10/11 02:05:46;;;;;;;11.60;3.40;;;4.50;99.90;;;;;;5053492;28;20068;-59
2022/10/11 02:08:17;;;;;;;20.25;4.38;;;4.70;99.90;;;;;;5053612;28;20041;-59
2022/10/11 02:11:01;;;;;;;14.73;4.32;;;4.80;99.90;;;;;;5053776;28;20047;-59
2022/10/11 02:14:02;;;;;;;11.65;4.30;;;4.60;99.90;;;;;;5053870;28;20484;-59
2022/10/11 02:16:35;;;;;;;15.27;4.30;;;4.80;99.90;;;;;;5051971;28;20045;-59
2022/10/11 02:19:06;;;;;;;18.17;4.57;;;4.80;99.90;;;;;;5052074;28;20045;-59
2022/10/11 02:21:35;;;;;;;11.80;3.53;;;4.90;99.90;;;;;;5053079;28;20120;-59
2022/10/11 02:24:11;;;;;;;13.10;3.72;;;4.60;99.90;;;;;;5052782;28;20481;-59
2022/10/11 02:26:41;;;;;;;11.38;3.38;;;4.70;99.90;;;;;;5053341;28;20040;-59
2022/10/11 02:29:11;;;;;;;9.85;3.53;;;4.60;99.90;;;;;;5053230;28;20131;-59
2022/10/11 02:31:38;;;;;;;12.10;3.60;;;4.80;99.90;;;;;;5053360;28;20041;-59
2022/10/11 02:34:13;;;;;;;13.68;3.67;;;4.50;99.90;;;;;;5053255;28;20048;-59
2022/10/11 02:36:47;;;;;;;9.50;3.63;;;4.60;99.90;;;;;;5053456;28;20036;-59
2022/10/11 02:39:23;;;;;;;11.27;3.47;;;4.70;99.90;;;;;;5051862;28;20152;-58
2022/10/11 02:41:51;;;;;;;9.43;3.22;;;4.70;99.90;;;;;;5053076;28;20493;-58
2022/10/11 02:44:32;;;;;;;7.78;3.03;;;4.80;99.90;;;;;;5053318;28;20049;-59
2022/10/11 02:47:02;;;;;;;9.63;3.25;;;4.60;99.90;;;;;;5053106;28;20041;-59
2022/10/11 02:49:30;;;;;;;14.73;3.85;;;5.30;99.90;;;;;;5053213;28;20397;-58
2022/10/11 02:51:56;;;;;;;12.02;3.30;;;;;;;;;;5052860;28;20040;-59
2022/10/11 02:54:24;;;;;;;8.70;3.35;;;4.50;99.90;;;;;;5053066;28;20098;-59
2022/10/11 02:56:50;;;;;;;10.13;3.13;;;4.60;99.90;;;;;;5053023;28;20496;-59
2022/10/11 02:59:16;;;;;;;11.93;3.42;;;;;;;;;;5051670;28;20037;-58
2022/10/11 03:01:42;;;;;;;15.10;4.22;;;;;;;;;;5052995;28;20037;-58
2022/10/11 03:04:08;;;;;;;9.48;3.60;;;4.50;99.90;;;;;;5056411;28;20393;-58
2022/10/11 03:06:34;;;;;;;13.18;3.63;;;4.60;99.90;;;;;;5056944;28;20051;-59
2022/10/11 03:09:03;;;;;;;15.48;3.22;;;5.20;99.90;;;;;;5055990;28;20090;-58
2022/10/11 03:11:29;;;;;;;12.98;3.70;;;4.50;99.90;;;;;;5057063;28;20037;-59
2022/10/11 03:13:55;;;;;;;6.68;3.13;;;;;;;;;;5056829;28;20041;-59
2022/10/11 03:16:20;;;;;;;9.15;3.13;;;4.50;99.90;;;;;;5057063;28;20048;-59
2022/10/11 03:18:48;;;;;;;8.00;3.00;;;5.20;99.90;;;;;;5056749;28;20029;-58
2022/10/11 03:21:14;;;;;;;9.50;3.63;;;3.90;99.90;;;;;;5056347;28;20052;-59
2022/10/11 03:23:41;;;;;;;11.57;3.40;;;4.30;99.90;;;;;;5056630;28;20032;-58
2022/10/11 03:26:08;;;;;;;8.70;3.20;;;4.40;99.90;;;;;;5055577;28;20037;-58
2022/10/11 03:28:38;;;;;;;8.48;3.28;;;;;;;;;;5056475;28;20048;-59
2022/10/11 03:31:07;;;;;;;7.95;2.78;;;4.30;99.90;;;;;;5056796;28;20056;-59
2022/10/11 03:33:33;;;;;;;8.02;2.80;;;4.20;99.90;;;;;;5056570;28;20103;-58
2022/10/11 03:36:03;;;;;;;10.55;3.40;;;;;;;;;;5056645;28;20040;-59
2022/10/11 03:38:29;;;;;;;7.82;3.10;;;4.30;99.90;;;;;;5056660;28;20094;-59
2022/10/11 03:40:55;;;;;;;9.43;2.90;;;3.70;99.90;;;;;;5056548;28;20373;-59
2022/10/11 03:43:21;;;;;;;10.15;3.00;;;;;;;;;;5056332;28;20052;-59
2022/10/11 03:45:47;;;;;;;9.43;3.42;;;4.10;99.90;;;;;;5055807;28;20077;-59
2022/10/11 03:48:13;;;;;;;7.95;3.08;;;;;;;;;;5054477;28;20069;-59
2022/10/11 03:50:39;;;;;;;4.72;2.60;;;4.10;99.90;;;;;;5054900;28;20047;-59
2022/10/11 03:53:05;;;;;;;10.27;3.30;;;4.50;99.90;;;;;;5056007;28;20044;-59
2022/10/11 03:55:33;;;;;;;15.20;3.67;;;4.20;99.90;;;;;;5056173;28;20033;-59
2022/10/11 03:57:58;;;;;;;8.88;3.00;;;4.20;99.90;;;;;;5056035;28;20072;-59
2022/10/11 04:00:25;;;;;;;14.77;3.70;;;4.20;99.90;;;;;;5056201;28;20068;-59
2022/10/11 04:02:51;;;;;;;9.45;3.20;;;;;;;;;;5055846;28;20102;-59
2022/10/11 04:05:17;;;;;;;14.10;3.30;;;3.90;99.90;;;;;;5056081;28;20048;-58
2022/10/11 04:07:43;;;;;;;9.60;3.70;;;;;;;;;;5055688;28;20037;-58
2022/10/11 04:10:09;;;;;;;11.55;3.85;;;4.30;99.90;;;;;;5055767;28;20041;-59
2022/10/11 04:12:37;;;;;;;15.57;4.10;;;4.10;99.90;;;;;;5055821;28;20041;-58
2022/10/11 04:15:05;;;;;;;9.82;3.80;;;4.20;99.90;;;;;;5055334;28;20049;-59
2022/10/11 04:17:30;;;;;;;12.73;4.03;;;4.30;99.90;;;;;;5054146;28;20128;-58
2022/10/11 04:20:01;;;;;;;10.05;4.05;;;4.20;99.90;;;;;;5055532;28;20048;-59
2022/10/11 04:22:31;;;;;;;17.13;4.28;;;4.20;99.90;;;;;;5055253;28;20072;-58
2022/10/11 04:24:57;;;;;;;10.77;4.93;;;;;;;;;;5055585;28;20044;-58
2022/10/11 04:27:22;;;;;;;10.15;4.65;;;4.00;99.90;;;;;;5053586;28;20045;-59
2022/10/11 04:29:48;;;;;;;18.60;4.65;;;;;;;;;;5053146;28;20059;-58
2022/10/11 04:32:14;;;;;;;11.48;4.53;;;;;;;;;;5053270;28;20453;-58
2022/10/11 04:34:40;;;;;;;13.43;4.90;;;4.60;99.90;;;;;;5053319;28;20041;-59
2022/10/11 04:37:09;;;;;;;10.18;4.45;;;4.90;99.90;;;;;;5053935;28;20036;-59
2022/10/11 04:39:35;;;;;;;11.63;4.35;;;4.60;99.90;;;;;;5055582;28;20429;-59
2022/10/11 04:42:01;;;;;;;18.65;4.32;;;4.30;99.90;;;;;;5050807;28;20037;-58
2022/10/11 04:44:27;;;;;;;14.60;4.10;;;4.10;99.90;;;;;;5054153;28;20045;-58
2022/10/11 04:46:53;;;;;;;11.20;3.83;;;4.70;99.90;;;;;;5053413;28;20044;-59
2022/10/11 04:49:19;;;;;;;5.45;3.30;;;;;;;;;;5054084;28;20041;-59
2022/10/11 04:51:47;;;;;;;12.35;3.63;;;4.10;99.90;;;;;;5051749;28;20048;-59
2022/10/11 04:54:13;;;;;;;15.18;4.75;;;4.40;99.90;;;;;;5053687;28;20067;-58
2022/10/11 04:56:39;;;;;;;10.30;4.15;;;4.40;99.90;;;;;;5053232;28;20037;-59
2022/10/11 04:59:05;;;;;;;14.05;4.70;;;;;;;;;;5053681;28;20382;-58
2022/10/11 05:01:34;;;;;;;11.90;4.03;;;4.50;99.90;;;;;;5053502;28;20044;-59
2022/10/11 05:03:59;;;;;;;12.90;4.15;;;4.20;99.90;;;;;;5053493;28;20542;-59
2022/10/11 05:06:26;;;;;;;11.10;4.28;;;4.80;99.90;;;;;;5053673;28;20049;-60
2022/10/11 05:08:52;;;;;;;9.88;4.22;;;3.50;99.90;;;;;;5052291;28;20098;-59
2022/10/11 05:11:18;;;;;;;12.20;3.97;;;;;;;;;;5052395;28;20473;-60
2022/10/11 05:13:45;;;;;;;9.80;4.05;;;4.30;99.90;;;;;;5052311;28;20040;-59
2022/10/11 05:16:10;;;;;;;7.03;3.95;;;4.10;99.90;;;;;;5052268;28;20090;-60
2022/10/11 05:18:37;;;;;;;15.77;3.92;;;;;;;;;;5052640;28;20036;-59
2022/10/11 05:21:24;;;;;;;15.38;3.95;;;4.30;99.90;;;;;;5051809;28;20045;-59
2022/10/11 05:23:51;;;;;;;9.43;4.07;;;3.20;99.90;;;;;;5053894;28;20080;-59
2022/10/11 05:26:19;;;;;;;10.18;3.97;;;4.20;99.90;;;;;;5053595;28;20080;-59
2022/10/11 05:28:46;;;;;;;11.10;3.80;;;3.70;99.90;;;;;;5054249;28;20053;-60
2022/10/11 05:31:12;;;;;;;11.27;4.30;;;4.10;99.90;;;;;;5054593;28;20037;-60
2022/10/11 05:33:38;;;;;;;9.73;3.72;;;4.30;99.90;;;;;;5054132;28;20049;-60
2022/10/11 05:36:04;;;;;;;9.68;3.90;;;3.80;99.90;;;;;;5054475;28;20037;-59
2022/10/11 05:38:31;;;;;;;13.90;4.70;;;4.10;99.90;;;;;;5054027;28;20037;-59
2022/10/11 05:41:02;;;;;;;12.98;6.68;;;4.00;99.90;;;;;;5053997;28;20044;-59
2022/10/11 05:43:30;;;;;;;23.02;4.85;;;4.40;99.90;;;;;;5053965;28;20037;-59
2022/10/11 05:45:56;;;;;;;14.57;5.18;;;4.00;99.90;;;;;;5054260;28;20045;-59
2022/10/11 05:48:25;;;;;;;13.57;4.97;;;4.70;99.90;;;;;;5054301;28;20041;-60
2022/10/11 05:51:02;;;;;;;14.32;5.25;;;4.30;99.90;;;;;;5053923;28;20508;-59
2022/10/11 05:53:29;;;;;;;13.23;4.80;;;4.20;99.90;;;;;;5053882;28;20080;-59
2022/10/11 05:56:00;;;;;;;10.43;4.65;;;;;;;;;;5053908;28;20120;-59
2022/10/11 05:58:26;;;;;;;13.00;4.53;;;4.00;99.90;;;;;;5053806;28;20465;-59
2022/10/11 06:00:52;;;;;;;14.15;4.50;;;;;;;;;;5052819;28;20426;-59
2022/10/11 06:03:19;;;;;;;13.55;5.65;;;3.80;99.90;;;;;;5053926;28;20048;-59
2022/10/11 06:05:49;;;;;;;11.65;4.85;;;4.30;99.90;;;;;;5053524;28;20045;-59
2022/10/11 06:08:16;;;;;;;20.02;4.85;;;4.20;99.90;;;;;;5053823;28;20118;-59
2022/10/11 06:10:43;;;;;;;11.63;4.45;;;;;;;;;;5053704;28;20063;-59
2022/10/11 06:13:09;;;;;;;18.83;5.20;;;4.50;99.90;;;;;;5053326;28;20147;-59
2022/10/11 06:15:39;;;;;;;20.17;5.32;;;;;;;;;;5053312;28;20051;-59
2022/10/11 06:18:20;;;;;;;14.88;5.97;;;;;;;;;;5052805;28;20041;-59
2022/10/11 06:20:46;;;;;;;17.83;5.57;;;;;;;;;;5053051;28;20052;-59
2022/10/11 06:23:15;;;;;;;27.55;6.47;;;4.50;99.90;;;;;;5053469;28;20079;-59
2022/10/11 06:25:42;;;;;;;22.77;5.78;;;4.60;99.90;;;;;;5053371;28;20512;-59
2022/10/11 06:28:08;;;;;;;32.05;7.40;;;;;;;;;;5053320;28;20389;-59
2022/10/11 06:30:34;;;;;;;30.10;6.70;;;4.80;99.90;;;;;;5053207;28;20073;-59
2022/10/11 06:33:02;;;;;;;21.05;6.53;;;4.90;99.90;;;;;;5053092;28;20131;-60
2022/10/11 06:35:28;;;;;;;20.90;6.60;;;;;;;;;;5053185;28;20083;-59
2022/10/11 06:37:57;;;;;;;19.52;6.20;;;4.70;99.90;;;;;;5053139;28;20032;-59
2022/10/11 06:40:26;;;;;;;18.85;6.75;;;5.00;99.90;;;;;;5051854;28;20075;-59
2022/10/11 06:42:52;;;;;;;16.30;7.40;;;5.00;99.90;;;;;;5053120;28;20497;-59
2022/10/11 06:45:17;;;;;;;23.20;7.45;;;5.30;99.90;;;;;;5053050;28;20504;-59
2022/10/11 06:47:44;;;;;;;19.33;7.10;;;5.50;99.90;;;;;;5053306;28;20114;-59
2022/10/11 06:50:12;;;;;;;16.98;6.75;;;5.00;99.90;;;;;;5052955;28;20545;-59
2022/10/11 06:52:37;;;;;;;21.33;6.30;;;5.30;99.90;;;;;;5053089;28;20542;-60
2022/10/11 06:55:10;;;;;;;14.15;5.78;;;5.30;99.90;;;;;;5052942;28;20041;-60
2022/10/11 06:57:37;;;;;;;13.40;6.30;;;;;;;;;;5051990;28;20055;-59
2022/10/11 07:00:05;;;;;;;31.10;6.68;;;5.40;99.90;;;;;;5052348;28;20388;-59
2022/10/11 07:02:33;;;;;;;23.90;6.25;;;5.50;99.90;;;;;;5053226;28;20396;-59
2022/10/11 07:04:59;;;;;;;18.02;6.43;;;4.90;99.90;;;;;;5052483;28;20037;-59
2022/10/11 07:07:25;;;;;;;23.80;6.25;;;5.80;99.90;;;;;;5052854;28;20142;-59
2022/10/11 07:09:52;;;;;;;20.58;6.20;;;5.80;99.90;;;;;;5052443;28;20091;-60
2022/10/11 07:12:18;;;;;;;18.65;6.05;;;6.00;99.90;;;;;;5052699;28;20040;-60
2022/10/11 07:14:44;;;;;;;17.40;6.60;;;;;;;;;;5052874;28;20370;-60
2022/10/11 07:17:10;;;;;;;21.63;6.68;;;;;;;;;;5052719;28;20509;-59
2022/10/11 07:19:36;;;;;;;19.85;6.68;;;7.10;99.90;;;;;;5048783;28;20044;-60
2022/10/11 07:22:02;;;;;;;15.23;6.00;;;6.20;99.90;;;;;;5049316;28;20109;-59
2022/10/11 07:24:28;;;;;;;17.55;6.53;;;6.50;99.90;;;;;;5050029;28;20128;-60
2022/10/11 07:26:54;;;;;;;22.08;6.32;;;7.40;99.90;;;;;;5052507;28;20076;-60
2022/10/11 07:29:19;;;;;;;19.02;6.28;;;6.70;99.90;;;;;;5052874;28;20495;-59
2022/10/11 07:31:45;;;;;;;20.02;5.70;;;6.20;99.90;;;;;;5055044;28;20400;-60
2022/10/11 07:34:11;;;;;;;17.88;6.32;;;;;;;;;;5072393;28;20041;-60
2022/10/11 07:36:38;;;;;;;16.90;5.93;;;6.50;99.90;;;;;;5072347;28;20119;-60
2022/10/11 07:39:06;;;;;;;16.90;6.18;;;6.90;99.90;;;;;;5072608;28;20048;-60
2022/10/11 07:41:32;;;;;;;17.85;6.25;;;;;;;;;;5047770;28;20049;-59
2022/10/11 07:43:59;;;;;;;14.18;5.63;;;7.10;99.90;;;;;;5049634;28;20033;-60
2022/10/11 07:46:27;;;;;;;15.68;5.78;;;7.20;99.90;;;;;;5049586;28;20626;-60
2022/10/11 07:48:57;;;;;;;17.45;6.15;;;6.80;99.90;;;;;;5049273;28;20465;-59
2022/10/11 07:51:24;;;;;;;14.40;5.90;;;7.30;99.90;;;;;;5052731;28;20045;-59
2022/10/11 07:53:57;;;;;;;15.02;5.88;;;7.40;99.90;;;;;;5053235;28;20116;-59
2022/10/11 07:56:25;;;;;;;16.67;5.68;;;7.50;99.90;;;;;;5053284;28;20045;-60
2022/10/11 07:58:54;;;;;;;21.67;6.05;;;7.50;99.90;;;;;;5052597;28;20485;-60
2022/10/11 08:01:20;;;;;;;17.33;5.88;;;7.60;99.90;;;;;;5052655;28;20064;-60
2022/10/11 08:03:47;;;;;;;13.43;5.57;;;7.70;99.90;;;;;;5054286;28;20043;-59
2022/10/11 08:06:16;;;;;;;16.65;5.45;;;7.70;99.90;;;;;;5055032;28;20140;-58
2022/10/11 08:08:44;;;;;;;13.50;5.25;;;7.60;99.90;;;;;;5055097;28;20049;-59
2022/10/11 08:11:18;;;;;;;20.33;5.57;;;7.80;99.90;;;;;;5054387;28;20047;-60
2022/10/11 08:13:43;;;;;;;16.10;5.18;;;8.30;99.90;;;;;;5055339;28;20405;-58
2022/10/11 08:16:11;;;;;;;18.67;5.38;;;7.10;99.90;;;;;;5055628;28;20044;-58
2022/10/11 08:18:41;;;;;;;17.85;5.40;;;8.10;99.90;;;;;;5046673;28;20041;-59
2022/10/11 08:21:12;;;;;;;13.10;5.32;;;8.90;99.90;;;;;;5037363;28;20061;-58
2022/10/11 08:23:55;;;;;;;16.70;5.15;;;8.20;99.90;;;;;;5036983;28;20049;-59
2022/10/11 08:26:21;;;;;;;22.95;6.22;;;8.30;99.90;;;;;;5035493;28;20053;-59
2022/10/11 08:28:47;;;;;;;14.85;5.40;;;;;;;;;;5035654;28;20113;-58
2022/10/11 08:31:14;;;;;;;16.45;4.63;;;9.50;99.90;;;;;;5035493;28;20127;-58
2022/10/11 08:33:40;;;;;;;14.68;5.10;;;10.20;99.90;;;;;;5035282;28;20604;-58
2022/10/11 08:36:08;;;;;;;15.70;4.05;;;11.40;99.90;;;;;;5034822;28;20128;-58
2022/10/11 08:38:37;;;;;;;15.95;4.32;;;12.40;99.90;;;;;;5033969;28;20041;-59
2022/10/11 08:41:22;;;;;;;15.45;4.20;;;13.00;99.90;;;;;;5034689;28;20049;-58
2022/10/11 08:44:03;;;;;;;16.60;3.90;;;13.20;99.90;;;;;;5034213;28;20046;-58
2022/10/11 08:46:32;;;;;;;19.23;4.75;;;13.40;99.90;;;;;;5035320;28;20033;-58
2022/10/11 08:49:01;;;;;;;12.07;3.65;;;13.40;99.90;;;;;;5035184;28;20037;-58
2022/10/11 08:51:37;;;;;;;17.38;3.83;;;13.50;99.90;;;;;;5035009;28;20045;-58
2022/10/11 08:54:45;;;;;;;15.88;4.05;;;13.60;99.90;;;;;;5035370;28;20081;-58
2022/10/11 08:57:24;;;;;;;16.05;3.80;;;13.90;99.90;;;;;;5051125;28;20041;-58
2022/10/11 09:00:04;;;;;;;14.15;3.83;;;14.00;99.90;;;;;;5052804;28;20039;-58
2022/10/11 09:02:54;;;;;;;16.27;4.20;;;13.90;99.90;;;;;;5054706;28;20443;-58
2022/10/11 09:05:24;;;;;;;13.63;4.10;;;14.40;99.90;;;;;;5054861;28;20445;-58
2022/10/11 09:08:06;;;;;;;16.83;3.65;;;14.30;99.90;;;;;;5054727;28;20123;-58
2022/10/11 09:10:34;;;;;;;14.35;3.80;;;;;;;;;;5054688;28;20045;-59
2022/10/11 09:13:51;;;;;;;14.10;3.58;;;14.40;99.90;;;;;;5054525;28;20113;-59
2022/10/11 09:16:32;;;;;;;17.02;3.60;;;14.40;99.90;;;;;;5054469;28;20041;-59
2022/10/11 09:19:01;;;;;;;14.88;3.42;;;14.70;99.90;;;;;;5054664;28;20044;-59
2022/10/11 09:21:59;;;;;;;15.00;3.33;;;14.70;99.90;;;;;;5054490;28;20516;-59
2022/10/11 09:24:28;;;;;;;15.13;3.70;;;15.20;99.90;;;;;;5053180;28;20136;-59
2022/10/11 09:27:07;;;;;;;16.75;3.40;;;14.20;99.90;;;;;;5054416;28;20045;-58
2022/10/11 09:29:47;;;;;;;11.18;3.13;;;15.20;99.90;;;;;;5054381;28;20116;-59
2022/10/11 09:32:17;;;;;;;15.57;3.55;;;15.10;99.90;;;;;;5054265;28;20045;-59
2022/10/11 09:34:43;;;;;;;14.13;3.40;;;14.50;99.90;;;;;;5054229;28;20037;-59
2022/10/11 09:37:46;;;;;;;15.10;4.00;;;14.60;99.90;;;;;;5054102;28;20083;-59
2022/10/11 09:40:24;;;;;;;22.25;3.63;;;14.60;99.90;;;;;;5054162;28;20405;-58
2022/10/11 09:42:50;;;;;;;16.83;3.38;;;14.10;99.90;;;;;;5054243;28;20036;-59
2022/10/11 09:45:20;;;;;;;15.25;3.28;;;14.40;99.90;;;;;;5053301;28;20163;-59
2022/10/11 09:47:50;;;;;;;17.38;3.45;;;14.30;99.90;;;;;;5053426;28;20098;-59
2022/10/11 09:50:20;;;;;;;31.35;3.53;;;14.00;99.90;;;;;;5053459;28;20048;-59
2022/10/11 09:52:50;;;;;;;15.27;2.88;;;14.30;99.90;;;;;;5052366;28;20044;-61
2022/10/11 09:55:51;;;;;;;17.10;3.50;;;13.80;99.90;;;;;;5053352;28;20121;-61
2022/10/11 09:58:35;;;;;;;13.05;3.15;;;14.40;99.90;;;;;;5050586;28;20044;-61
2022/10/11 10:01:07;;;;;;;12.75;2.85;;;14.10;99.90;;;;;;5051480;28;20041;-61
2022/10/11 10:03:38;;;;;;;15.85;3.65;;;14.70;99.90;;;;;;5034994;28;20134;-61
2022/10/11 10:06:23;;;;;;;11.75;2.97;;;14.10;99.90;;;;;;5051431;28;20099;-62
2022/10/11 10:08:53;;;;;;;12.48;2.90;;;14.10;99.90;;;;;;5051551;28;20377;-62
2022/10/11 10:11:20;;;;;;;15.70;2.88;;;13.80;99.90;;;;;;5051184;28;20044;-61
2022/10/11 10:13:54;;;;;;;17.67;3.50;;;14.20;99.90;;;;;;5051193;28;20055;-61
2022/10/11 10:16:36;;;;;;;15.10;2.92;;;14.20;99.90;;;;;;5051237;28;20489;-62
2022/10/11 10:19:02;;;;;;;15.10;2.90;;;;;;;;;;5034895;28;20099;-62
2022/10/11 10:21:34;;;;;;;16.23;3.40;;;14.50;99.90;;;;;;5034246;28;20590;-62
2022/10/11 10:24:33;;;;;;;16.90;3.22;;;14.30;99.90;;;;;;5051019;28;20120;-62
2022/10/11 10:27:13;;;;;;;14.90;2.90;;;14.40;99.90;;;;;;5051052;28;20083;-62
2022/10/11 10:29:39;;;;;;;16.10;3.30;;;14.10;99.90;;;;;;5051119;28;20033;-62
2022/10/11 10:32:12;;;;;;;15.38;3.30;;;14.30;99.90;;;;;;5051122;28;20037;-62
2022/10/11 10:35:10;;;;;;;15.00;3.10;;;14.70;99.90;;;;;;5052533;28;20136;-62
2022/10/11 10:37:47;;;;;;;12.07;2.90;;;14.40;99.90;;;;;;5050884;28;20051;-62
2022/10/11 10:40:56;;;;;;;16.67;3.45;;;14.90;99.90;;;;;;5051043;28;20048;-62
2022/10/11 10:43:26;;;;;;;13.88;2.67;;;14.50;99.90;;;;;;5040414;28;20053;-62
2022/10/11 10:45:52;;;;;;;128.27;9.05;;;;;;;;;;5051021;28;20492;-62
2022/10/11 10:48:41;;;;;;;14.80;3.00;;;14.50;99.90;;;;;;5050851;28;20059;-62
2022/10/11 10:51:25;;;;;;;16.27;3.45;;;14.60;99.90;;;;;;5050835;28;20120;-62
2022/10/11 10:54:19;;;;;;;18.63;3.50;;;14.80;99.90;;;;;;5034228;28;20048;-62
2022/10/11 10:57:09;;;;;;;31.80;4.22;;;14.50;99.90;;;;;;5050567;28;20048;-62
2022/10/11 10:59:53;;;;;;;26.40;3.60;;;15.10;99.90;;;;;;5050911;28;20163;-62
2022/10/11 11:02:20;;;;;;;19.02;3.55;;;14.90;99.90;;;;;;5050864;28;20037;-62
2022/10/11 11:05:00;;;;;;;14.77;3.25;;;15.00;99.90;;;;;;5050834;28;20176;-62
2022/10/11 11:07:53;;;;;;;15.30;3.22;;;14.70;99.90;;;;;;5050838;28;20056;-62
2022/10/11 11:10:42;;;;;;;16.63;3.22;;;15.10;99.90;;;;;;5050791;28;20123;-62
2022/10/11 11:13:37;;;;;;;11.43;2.95;;;15.10;99.90;;;;;;5051063;28;20049;-62
2022/10/11 11:16:32;;;;;;;20.65;3.60;;;15.20;99.90;;;;;;5052799;28;20067;-62
2022/10/11 11:18:59;;;;;;;;;;;15.30;99.90;;;;;;5053275;28;20052;-62
2022/10/11 11:21:55;;;;;;;21.23;3.20;;;15.60;99.90;;;;;;5052528;28;19921;-62
2022/10/11 11:24:48;;;;;;;15.13;2.97;;;14.90;99.90;;;;;;5054474;28;20059;-62
2022/10/11 11:27:28;;;;;;;13.95;3.17;;;15.20;99.90;;;;;;5055429;28;20093;-62
2022/10/11 11:30:47;;;;;;;59.28;7.00;;;15.60;99.90;;;;;;5055648;28;20049;-62
2022/10/11 11:33:41;;;;;;;71.78;6.57;;;15.90;99.90;;;;;;5056414;28;20378;-62
2022/10/11 11:36:25;;;;;;;26.42;3.65;;;16.00;99.90;;;;;;5056354;28;20040;-62
2022/10/11 11:38:58;;;;;;;16.15;3.45;;;15.70;99.90;;;;;;5056440;28;20385;-62
2022/10/11 11:41:58;;;;;;;11.57;3.08;;;15.90;99.90;;;;;;5056673;28;20121;-61
2022/10/11 11:44:37;;;;;;;17.27;3.55;;;16.00;99.90;;;;;;5052315;28;20049;-61
2022/10/11 11:47:26;;;;;;;16.85;3.30;;;15.70;99.90;;;;;;5056456;28;20154;-62
2022/10/11 11:49:59;;;;;;;15.45;3.30;;;16.10;99.90;;;;;;5055667;28;20051;-61
2022/10/11 11:52:47;;;;;;;13.15;3.10;;;16.40;99.90;;;;;;5056481;28;20045;-62
2022/10/11 11:55:23;;;;;;;16.27;3.13;;;16.20;99.90;;;;;;5056273;28;20389;-62
2022/10/11 11:58:26;;;;;;;15.75;2.92;;;16.60;99.90;;;;;;5056101;28;20485;-62
2022/10/11 12:01:22;;;;;;;18.58;3.50;;;16.40;99.90;;;;;;5056117;28;20048;-62
2022/10/11 12:03:52;;;;;;;16.67;3.15;;;16.40;99.90;;;;;;5055963;28;20044;-62
2022/10/11 12:06:33;;;;;;;16.73;3.05;;;16.50;99.90;;;;;;5055854;28;20091;-62
2022/10/11 12:09:21;;;;;;;17.27;3.50;;;16.70;99.90;;;;;;5054745;28;20552;-62
2022/10/11 12:11:54;;;;;;;15.43;3.05;;;17.20;99.90;;;;;;5056045;28;20477;-62
2022/10/11 12:14:34;;;;;;;15.93;3.50;;;16.70;99.90;;;;;;5054786;28;20064;-62
2022/10/11 12:17:21;;;;;;;17.95;3.10;;;15.40;99.90;;;;;;5055975;28;20115;-62
2022/10/11 12:20:08;;;;;;;17.45;3.28;;;17.40;99.90;;;;;;5055712;28;20040;-62
2022/10/11 12:22:34;;;;;;;14.05;3.05;;;;;;;;;;5055315;28;20060;-62
2022/10/11 12:25:22;;;;;;;164.98;11.25;;;17.30;99.90;;;;;;5053828;28;20051;-63
2022/10/11 12:27:53;;;;;;;43.38;5.43;;;17.10;99.90;;;;;;5048259;28;20045;-62
2022/10/11 12:30:46;;;;;;;31.33;3.97;;;17.10;99.90;;;;;;5055530;28;20056;-62
2022/10/11 12:34:07;;;;;;;19.02;3.20;;;16.90;99.90;;;;;;5055274;28;20037;-62
2022/10/11 12:36:36;;;;;;;11.23;2.85;;;16.40;99.90;;;;;;5055105;28;20048;-64
2022/10/11 12:39:20;;;;;;;32.78;3.97;;;16.60;99.90;;;;;;5055150;28;20067;-60
2022/10/11 12:41:54;;;;;;;20.40;2.95;;;17.00;99.90;;;;;;5055115;28;20095;-60
2022/10/11 12:44:27;;;;;;;22.30;3.17;;;16.80;99.90;;;;;;5055281;28;20037;-61
2022/10/11 12:47:01;;;;;;;15.45;3.25;;;17.10;99.90;;;;;;5055112;28;20045;-60
2022/10/11 12:49:35;;;;;;;18.40;3.50;;;17.20;99.90;;;;;;5055090;28;20041;-60
2022/10/11 12:52:15;;;;;;;11.38;2.60;;;17.30;99.90;;;;;;5054977;28;20045;-60
2022/10/11 12:54:47;;;;;;;11.60;2.50;;;17.30;99.90;;;;;;5054853;28;20048;-61
2022/10/11 12:57:34;;;;;;;11.93;3.00;;;17.80;99.90;;;;;;5053657;28;20090;-60
2022/10/11 13:00:28;;;;;;;70.88;6.13;;;17.40;99.90;;;;;;5054911;28;20342;-61
2022/10/11 13:02:58;;;;;;;49.88;4.72;;;17.20;99.90;;;;;;5055014;28;20095;-60
2022/10/11 13:05:35;;;;;;;19.08;3.20;;;17.60;99.90;;;;;;5053403;28;20045;-60
2022/10/11 13:08:04;;;;;;;14.95;3.05;;;17.20;99.90;;;;;;5053735;28;20415;-60
2022/10/11 13:10:41;;;;;;;58.63;4.95;;;17.70;99.90;;;;;;5054802;28;20033;-61
2022/10/11 13:13:40;;;;;;;29.40;3.85;;;17.80;99.90;;;;;;5054555;28;20037;-60
2022/10/11 13:16:15;;;;;;;43.97;5.53;;;17.70;99.90;;;;;;5054033;28;20091;-60
2022/10/11 13:18:45;;;;;;;28.63;4.20;;;18.00;99.90;;;;;;5054523;28;20033;-60
2022/10/11 13:21:38;;;;;;;41.00;4.82;;;18.70;99.90;;;;;;5054046;28;20091;-62
2022/10/11 13:24:15;;;;;;;101.75;7.78;;;17.90;99.90;;;;;;5054428;28;20442;-62
2022/10/11 13:26:45;;;;;;;22.95;3.35;;;17.80;99.90;;;;;;5054395;28;20029;-62
2022/10/11 13:29:23;;;;;;;13.85;2.80;;;17.80;99.90;;;;;;5054687;28;20056;-62